Terminal Aerodrome Forecast
Issued by NWS Boston, MA

Home | Current Version | Previous Version | Text Only | Print | Product List | Glossary On
Versions: 1 2 3 4 5 6 7 8 9 10 11 12 13 14 15 16 17 18 19 20 21 22 23 24 25 26 27 28 29 30 31 32 33 34 35 36 37 38 39 40 41 42 43 44 45 46
000
FTUS41 KBOX 201732
TAFBDL
TAF
KBDL 201732Z 2018/2124 15004KT P6SM OVC025
     FM202000 17005KT P6SM BKN030
     FM210000 17004KT P6SM VCSH BKN030
     FM210500 00000KT 3SM BR VCSH OVC015
     FM211400 21004KT P6SM FEW025 BKN250=

USA.gov is the U.S. government's official web portal to all federal, state and local government web resources and services.